CPV4 weather

Mansfield Airport
Mansfield, Ontario, Canada

Public forecast

Using degrees Celsius for public forecast. Weather courtesy of forecast.io.

METAR (pilot weather report)

Closest report is CFB Borden, 8.8 nm (16.3 km) NNE. Retrieved 2019/09/16 15:00 UTC (4 minutes ago):

CYBN 161500Z AUTO 11003KT 9SM FEW015 OVC024 15/13 A3013 RMK SLP207

TAF (pilot weather forecast)

Closest forecast is CFB Borden, 8.8 nm (16.3 km) NNE. Retrieved 2019/09/16 12:33 UTC (3 hours ago):

TAF TAF CYBN 161130Z 1612/1624 VRB03KT P6SM OVC025 TEMPO 1612/1615 5SM -DZ -RA BR OVC020 FM161500 15005KT P6SM BKN025 TEMPO 1615/1617 BKN020 FM161700 15005KT P6SM FEW030 RMK FCST BASED ON AUTO OBS. NXT FCST BY 161800Z